首页
METAR-TAF:

METAR-TAF

机场 :

雅典, 喬治亞, 美国

纬度: 33-57-03N, 经度: 083-19-41W, 海拔: 246米

当前天气观测

该预报发布于58分钟前的04:51 UTC
静风
温度 22°C
湿度 83%
气压 1019 hPa
能見度: 16.1公里
散云层高于5500英尺

METAR: KAHN 250451Z AUTO 00000KT 10SM SCT055 22/19 A3008 RMK AO2 SLP179 T02170189 403330200

时间: 01:49 (05:49 UTC)

预报

该预报发布于6分钟前的05:43 UTC
预报有效从25日的 06点(UTC)到 26日的 06点(UTC)
风速5节,风向
能見度: 10公里
散云层高于5000英尺
多云层高于12000英尺
附近有阵雨
从 25日的 0800点(UTC)
风速5节,风向
能見度: 10公里
多云层高于3500英尺
从 25日的 1500点(UTC)
风速7节,风向
能見度: 10公里
多云层高于2500英尺
从 25日的 1800点(UTC)
风速10节,风向
能見度: 10公里
多云层高于3500英尺
附近有阵雨
短暂存在
从 25日的 20点(UTC)到 25日的 24点(UTC)
能見度: 6.4公里
多云层高于2500英尺, 积雨云.
雷暴, 雨
从 26日的 0300点(UTC)
风速7节,风向
能見度: 10公里
多云层高于3000英尺
附近有阵雨

TAF: KAHN 250543Z 2506/2606 09005KT P6SM VCSH SCT050 BKN120 FM250800 10005KT P6SM BKN035 FM251500 10007KT P6SM BKN025 FM251800 10010KT P6SM VCSH BKN035 TEMPO 2520/2524 4SM TSRA BKN025CB FM260300 09007KT P6SM VCSH BKN030

超过4000个机场的气象观测和天气预报(METAR&TAF报告)。

可查询的气象台以黄色和红色小点在地图上表示。

将鼠标移到小点上方,可查看气象台名称。

然后点击查看天气观测和预报。

如需切换地图:点击带黑十字的绿色按钮放大地图;点击带横线的绿色按钮缩小地图;或者点击绿色箭头查看邻近地区的地图。


METAR-TAF: